sensor_id;sensor_type;location;lat;lon;timestamp;temperature;humidity
22842;DHT22;11587;47.064;15.444;2022-09-01T00:01:44;16.40;99.90
22842;DHT22;11587;47.064;15.444;2022-09-01T00:04:13;16.50;99.90
22842;DHT22;11587;47.064;15.444;2022-09-01T00:09:09;16.40;99.90
22842;DHT22;11587;47.064;15.444;2022-09-01T00:11:35;16.30;99.90
22842;DHT22;11587;47.064;15.444;2022-09-01T00:14:02;16.40;99.90
22842;DHT22;11587;47.064;15.444;2022-09-01T00:16:29;16.40;99.90
22842;DHT22;11587;47.064;15.444;2022-09-01T00:21:24;16.40;99.90
22842;DHT22;11587;47.064;15.444;2022-09-01T00:23:50;16.30;99.90
22842;DHT22;11587;47.064;15.444;2022-09-01T00:26:16;16.10;99.90
22842;DHT22;11587;47.064;15.444;2022-09-01T00:28:42;16.00;99.90
22842;DHT22;11587;47.064;15.444;2022-09-01T00:31:09;16.10;99.90
22842;DHT22;11587;47.064;15.444;2022-09-01T00:33:39;16.00;99.90
22842;DHT22;11587;47.064;15.444;2022-09-01T00:38:32;16.20;99.90
22842;DHT22;11587;47.064;15.444;2022-09-01T00:40:59;16.20;99.90
22842;DHT22;11587;47.064;15.444;2022-09-01T00:43:41;16.10;99.90
22842;DHT22;11587;47.064;15.444;2022-09-01T00:46:29;16.20;99.90
22842;DHT22;11587;47.064;15.444;2022-09-01T00:51:20;16.20;99.90
22842;DHT22;11587;47.064;15.444;2022-09-01T00:53:46;16.20;99.90
22842;DHT22;11587;47.064;15.444;2022-09-01T00:56:12;16.20;99.90
22842;DHT22;11587;47.064;15.444;2022-09-01T00:58:39;16.30;99.90
22842;DHT22;11587;47.064;15.444;2022-09-01T01:01:06;16.30;99.90
22842;DHT22;11587;47.064;15.444;2022-09-01T01:03:33;16.40;99.90
22842;DHT22;11587;47.064;15.444;2022-09-01T01:08:31;16.30;99.90
22842;DHT22;11587;47.064;15.444;2022-09-01T01:11:10;16.20;99.90
22842;DHT22;11587;47.064;15.444;2022-09-01T01:13:54;16.20;99.90
22842;DHT22;11587;47.064;15.444;2022-09-01T01:16:22;16.30;99.90
22842;DHT22;11587;47.064;15.444;2022-09-01T01:18:49;16.30;99.90
22842;DHT22;11587;47.064;15.444;2022-09-01T01:21:36;16.20;99.90
22842;DHT22;11587;47.064;15.444;2022-09-01T01:29:14;16.30;99.90
22842;DHT22;11587;47.064;15.444;2022-09-01T01:31:40;16.30;99.90
22842;DHT22;11587;47.064;15.444;2022-09-01T01:34:06;16.20;99.90
22842;DHT22;11587;47.064;15.444;2022-09-01T01:41:24;16.20;99.90
22842;DHT22;11587;47.064;15.444;2022-09-01T01:43:50;16.20;99.90
22842;DHT22;11587;47.064;15.444;2022-09-01T01:46:16;16.30;99.90
22842;DHT22;11587;47.064;15.444;2022-09-01T01:48:42;16.40;99.90
22842;DHT22;11587;47.064;15.444;2022-09-01T01:51:09;16.40;99.90
22842;DHT22;11587;47.064;15.444;2022-09-01T01:53:37;16.40;99.90
22842;DHT22;11587;47.064;15.444;2022-09-01T01:56:03;16.10;99.90
22842;DHT22;11587;47.064;15.444;2022-09-01T01:58:32;16.20;99.90
22842;DHT22;11587;47.064;15.444;2022-09-01T02:00:59;16.20;99.90
22842;DHT22;11587;47.064;15.444;2022-09-01T02:03:31;16.40;99.90
22842;DHT22;11587;47.064;15.444;2022-09-01T02:08:26;16.40;99.90
22842;DHT22;11587;47.064;15.444;2022-09-01T02:10:53;16.30;99.90
22842;DHT22;11587;47.064;15.444;2022-09-01T02:13:21;16.40;99.90
22842;DHT22;11587;47.064;15.444;2022-09-01T02:15:52;16.30;99.90
22842;DHT22;11587;47.064;15.444;2022-09-01T02:18:24;16.40;99.90
22842;DHT22;11587;47.064;15.444;2022-09-01T02:23:19;16.30;99.90
22842;DHT22;11587;47.064;15.444;2022-09-01T02:25:50;16.20;99.90
22842;DHT22;11587;47.064;15.444;2022-09-01T02:28:19;16.20;99.90
22842;DHT22;11587;47.064;15.444;2022-09-01T02:30:51;16.30;99.90
22842;DHT22;11587;47.064;15.444;2022-09-01T02:38:11;16.20;99.90
22842;DHT22;11587;47.064;15.444;2022-09-01T02:40:40;16.10;99.90
22842;DHT22;11587;47.064;15.444;2022-09-01T02:43:08;16.20;99.90
22842;DHT22;11587;47.064;15.444;2022-09-01T02:45:37;16.10;99.90
22842;DHT22;11587;47.064;15.444;2022-09-01T02:52:53;16.00;99.90
22842;DHT22;11587;47.064;15.444;2022-09-01T02:55:20;16.00;99.90
22842;DHT22;11587;47.064;15.444;2022-09-01T02:57:50;16.00;99.90
22842;DHT22;11587;47.064;15.444;2022-09-01T03:00:20;16.00;99.90
22842;DHT22;11587;47.064;15.444;2022-09-01T03:02:58;15.90;99.90
22842;DHT22;11587;47.064;15.444;2022-09-01T03:07:55;16.00;99.90
22842;DHT22;11587;47.064;15.444;2022-09-01T03:10:31;16.00;99.90
22842;DHT22;11587;47.064;15.444;2022-09-01T03:12:59;16.00;99.90
22842;DHT22;11587;47.064;15.444;2022-09-01T03:15:27;16.00;99.90
22842;DHT22;11587;47.064;15.444;2022-09-01T03:22:44;16.00;99.90
22842;DHT22;11587;47.064;15.444;2022-09-01T03:25:09;16.00;99.90
22842;DHT22;11587;47.064;15.444;2022-09-01T03:27:35;16.10;99.90
22842;DHT22;11587;47.064;15.444;2022-09-01T03:32:27;16.10;99.90
22842;DHT22;11587;47.064;15.444;2022-09-01T03:34:53;16.10;99.90
22842;DHT22;11587;47.064;15.444;2022-09-01T03:37:19;16.10;99.90
22842;DHT22;11587;47.064;15.444;2022-09-01T03:39:47;16.10;99.90
22842;DHT22;11587;47.064;15.444;2022-09-01T03:42:13;16.00;99.90
22842;DHT22;11587;47.064;15.444;2022-09-01T06:41:07;17.00;99.90
22842;DHT22;11587;47.064;15.444;2022-09-01T06:43:36;17.00;99.90
22842;DHT22;11587;47.064;15.444;2022-09-01T06:46:04;17.00;99.90
22842;DHT22;11587;47.064;15.444;2022-09-01T06:48:30;17.10;99.90
22842;DHT22;11587;47.064;15.444;2022-09-01T06:51:00;17.10;99.90
22842;DHT22;11587;47.064;15.444;2022-09-01T06:53:28;17.20;99.90
22842;DHT22;11587;47.064;15.444;2022-09-01T06:55:55;17.20;99.90
22842;DHT22;11587;47.064;15.444;2022-09-01T06:58:21;17.30;99.90
22842;DHT22;11587;47.064;15.444;2022-09-01T07:00:47;17.40;99.90
22842;DHT22;11587;47.064;15.444;2022-09-01T07:03:14;17.50;99.90
22842;DHT22;11587;47.064;15.444;2022-09-01T07:05:42;17.60;99.90
22842;DHT22;11587;47.064;15.444;2022-09-01T07:08:11;17.60;99.90
22842;DHT22;11587;47.064;15.444;2022-09-01T07:10:46;17.70;99.90
22842;DHT22;11587;47.064;15.444;2022-09-01T07:13:17;17.70;99.90
22842;DHT22;11587;47.064;15.444;2022-09-01T07:15:48;17.80;99.90
22842;DHT22;11587;47.064;15.444;2022-09-01T07:18:16;17.80;99.90
22842;DHT22;11587;47.064;15.444;2022-09-01T07:20:42;17.90;99.90
22842;DHT22;11587;47.064;15.444;2022-09-01T07:23:09;17.80;99.90
22842;DHT22;11587;47.064;15.444;2022-09-01T07:25:40;17.80;99.90
22842;DHT22;11587;47.064;15.444;2022-09-01T07:28:07;17.90;99.90
22842;DHT22;11587;47.064;15.444;2022-09-01T07:30:33;17.90;99.90
22842;DHT22;11587;47.064;15.444;2022-09-01T07:33:04;17.90;99.90
22842;DHT22;11587;47.064;15.444;2022-09-01T07:35:36;18.00;99.90
22842;DHT22;11587;47.064;15.444;2022-09-01T07:38:03;18.00;99.90
22842;DHT22;11587;47.064;15.444;2022-09-01T07:40:36;18.00;99.90
22842;DHT22;11587;47.064;15.444;2022-09-01T07:43:16;18.00;99.90
22842;DHT22;11587;47.064;15.444;2022-09-01T07:45:48;18.00;99.90
22842;DHT22;11587;47.064;15.444;2022-09-01T07:48:17;18.10;99.90
22842;DHT22;11587;47.064;15.444;2022-09-01T07:50:46;18.00;99.90
22842;DHT22;11587;47.064;15.444;2022-09-01T07:53:23;18.00;99.90
22842;DHT22;11587;47.064;15.444;2022-09-01T07:55:52;18.00;99.90
22842;DHT22;11587;47.064;15.444;2022-09-01T07:58:24;18.00;99.90
22842;DHT22;11587;47.064;15.444;2022-09-01T08:00:51;18.00;99.90
22842;DHT22;11587;47.064;15.444;2022-09-01T08:03:21;17.90;99.90
22842;DHT22;11587;47.064;15.444;2022-09-01T08:05:47;17.90;99.90
22842;DHT22;11587;47.064;15.444;2022-09-01T08:08:19;18.00;99.90
22842;DHT22;11587;47.064;15.444;2022-09-01T08:10:45;18.00;99.90
22842;DHT22;11587;47.064;15.444;2022-09-01T08:13:13;18.10;99.90
22842;DHT22;11587;47.064;15.444;2022-09-01T08:15:40;18.10;99.90
22842;DHT22;11587;47.064;15.444;2022-09-01T08:18:06;18.10;99.90
22842;DHT22;11587;47.064;15.444;2022-09-01T08:20:33;18.00;99.90
22842;DHT22;11587;47.064;15.444;2022-09-01T08:23:05;18.10;99.90
22842;DHT22;11587;47.064;15.444;2022-09-01T08:25:33;18.10;99.90
22842;DHT22;11587;47.064;15.444;2022-09-01T08:28:00;18.20;99.90
22842;DHT22;11587;47.064;15.444;2022-09-01T08:30:26;18.20;99.90
22842;DHT22;11587;47.064;15.444;2022-09-01T08:32:53;18.20;99.90
22842;DHT22;11587;47.064;15.444;2022-09-01T08:35:19;18.30;99.90
22842;DHT22;11587;47.064;15.444;2022-09-01T08:37:45;18.30;99.90
22842;DHT22;11587;47.064;15.444;2022-09-01T08:40:13;18.30;99.90
22842;DHT22;11587;47.064;15.444;2022-09-01T08:45:48;18.40;99.90
22842;DHT22;11587;47.064;15.444;2022-09-01T08:48:26;18.40;99.90
22842;DHT22;11587;47.064;15.444;2022-09-01T08:51:31;18.50;99.90
22842;DHT22;11587;47.064;15.444;2022-09-01T08:56:31;18.60;99.90
22842;DHT22;11587;47.064;15.444;2022-09-01T08:59:01;18.70;99.90
22842;DHT22;11587;47.064;15.444;2022-09-01T09:01:39;18.60;99.90
22842;DHT22;11587;47.064;15.444;2022-09-01T09:10:05;19.00;99.90
22842;DHT22;11587;47.064;15.444;2022-09-01T09:12:43;19.10;99.90
22842;DHT22;11587;47.064;15.444;2022-09-01T09:15:44;19.30;99.90
22842;DHT22;11587;47.064;15.444;2022-09-01T09:19:00;19.30;99.90
22842;DHT22;11587;47.064;15.444;2022-09-01T09:21:20;19.30;99.90
22842;DHT22;11587;47.064;15.444;2022-09-01T09:23:57;19.40;99.90
22842;DHT22;11587;47.064;15.444;2022-09-01T09:26:23;19.40;99.90
22842;DHT22;11587;47.064;15.444;2022-09-01T09:28:49;19.60;99.90
22842;DHT22;11587;47.064;15.444;2022-09-01T09:31:44;19.70;99.90
22842;DHT22;11587;47.064;15.444;2022-09-01T09:34:39;20.00;99.90
22842;DHT22;11587;47.064;15.444;2022-09-01T09:37:27;20.20;99.90
22842;DHT22;11587;47.064;15.444;2022-09-01T09:40:18;20.40;99.90
22842;DHT22;11587;47.064;15.444;2022-09-01T09:45:28;20.80;99.90
22842;DHT22;11587;47.064;15.444;2022-09-01T09:47:56;20.80;99.90
22842;DHT22;11587;47.064;15.444;2022-09-01T09:50:29;20.70;99.90
22842;DHT22;11587;47.064;15.444;2022-09-01T09:53:15;20.60;99.90
22842;DHT22;11587;47.064;15.444;2022-09-01T09:56:08;20.70;99.90
22842;DHT22;11587;47.064;15.444;2022-09-01T09:58:43;20.50;99.90
22842;DHT22;11587;47.064;15.444;2022-09-01T10:01:28;20.60;99.90
22842;DHT22;11587;47.064;15.444;2022-09-01T10:03:59;20.70;99.90
22842;DHT22;11587;47.064;15.444;2022-09-01T10:06:34;20.70;99.90
22842;DHT22;11587;47.064;15.444;2022-09-01T10:09:03;20.50;99.90
22842;DHT22;11587;47.064;15.444;2022-09-01T10:13:58;20.60;99.90
22842;DHT22;11587;47.064;15.444;2022-09-01T10:16:30;20.70;99.90
22842;DHT22;11587;47.064;15.444;2022-09-01T10:18:58;20.70;99.90
22842;DHT22;11587;47.064;15.444;2022-09-01T10:21:37;20.70;99.90
22842;DHT22;11587;47.064;15.444;2022-09-01T10:26:46;20.90;99.90
22842;DHT22;11587;47.064;15.444;2022-09-01T10:29:38;21.10;99.90
22842;DHT22;11587;47.064;15.444;2022-09-01T10:32:06;21.40;99.90
22842;DHT22;11587;47.064;15.444;2022-09-01T10:34:36;21.40;99.90
22842;DHT22;11587;47.064;15.444;2022-09-01T10:37:05;21.40;99.90
22842;DHT22;11587;47.064;15.444;2022-09-01T10:39:32;21.30;99.90
22842;DHT22;11587;47.064;15.444;2022-09-01T10:41:59;21.30;99.90
22842;DHT22;11587;47.064;15.444;2022-09-01T10:44:33;21.20;99.90
22842;DHT22;11587;47.064;15.444;2022-09-01T10:52:00;21.00;99.90
22842;DHT22;11587;47.064;15.444;2022-09-01T10:59:54;21.90;99.90
22842;DHT22;11587;47.064;15.444;2022-09-01T11:02:22;22.50;99.90
22842;DHT22;11587;47.064;15.444;2022-09-01T11:15:43;22.30;99.90
22842;DHT22;11587;47.064;15.444;2022-09-01T11:18:29;21.90;99.90
22842;DHT22;11587;47.064;15.444;2022-09-01T11:21:35;21.90;99.90
22842;DHT22;11587;47.064;15.444;2022-09-01T11:27:10;21.60;99.90
22842;DHT22;11587;47.064;15.444;2022-09-01T11:29:56;21.60;99.90
22842;DHT22;11587;47.064;15.444;2022-09-01T11:32:31;21.60;99.90
22842;DHT22;11587;47.064;15.444;2022-09-01T11:35:13;21.50;99.90
22842;DHT22;11587;47.064;15.444;2022-09-01T11:37:41;21.40;99.90
22842;DHT22;11587;47.064;15.444;2022-09-01T11:40:08;21.50;99.90
22842;DHT22;11587;47.064;15.444;2022-09-01T11:47:41;21.40;99.90
22842;DHT22;11587;47.064;15.444;2022-09-01T11:50:25;21.30;99.90
22842;DHT22;11587;47.064;15.444;2022-09-01T11:53:00;21.30;99.90
22842;DHT22;11587;47.064;15.444;2022-09-01T11:57:55;20.90;99.90
22842;DHT22;11587;47.064;15.444;2022-09-01T12:00:33;20.90;99.90
22842;DHT22;11587;47.064;15.444;2022-09-01T12:03:05;21.00;99.90
22842;DHT22;11587;47.064;15.444;2022-09-01T12:05:45;21.00;99.90
22842;DHT22;11587;47.064;15.444;2022-09-01T12:08:14;21.40;99.90
22842;DHT22;11587;47.064;15.444;2022-09-01T12:10:43;21.80;99.90
22842;DHT22;11587;47.064;15.444;2022-09-01T12:13:22;22.10;99.90
22842;DHT22;11587;47.064;15.444;2022-09-01T12:15:54;22.50;99.90
22842;DHT22;11587;47.064;15.444;2022-09-01T12:18:23;23.30;99.90
22842;DHT22;11587;47.064;15.444;2022-09-01T12:20:54;23.80;99.90
22842;DHT22;11587;47.064;15.444;2022-09-01T12:25:53;25.10;99.90
22842;DHT22;11587;47.064;15.444;2022-09-01T12:28:22;24.50;99.90
22842;DHT22;11587;47.064;15.444;2022-09-01T12:30:49;24.40;99.90
22842;DHT22;11587;47.064;15.444;2022-09-01T12:33:17;23.70;99.90
22842;DHT22;11587;47.064;15.444;2022-09-01T12:35:44;22.90;99.90
22842;DHT22;11587;47.064;15.444;2022-09-01T12:40:54;22.50;99.90
22842;DHT22;11587;47.064;15.444;2022-09-01T12:43:35;22.20;99.90
22842;DHT22;11587;47.064;15.444;2022-09-01T12:46:04;21.90;99.90
22842;DHT22;11587;47.064;15.444;2022-09-01T12:48:37;21.70;99.90
22842;DHT22;11587;47.064;15.444;2022-09-01T12:51:20;21.50;99.90
22842;DHT22;11587;47.064;15.444;2022-09-01T12:53:53;21.60;99.90
22842;DHT22;11587;47.064;15.444;2022-09-01T12:56:29;21.40;99.90
22842;DHT22;11587;47.064;15.444;2022-09-01T12:59:14;21.30;99.90
22842;DHT22;11587;47.064;15.444;2022-09-01T13:01:45;21.10;99.90
22842;DHT22;11587;47.064;15.444;2022-09-01T13:04:12;21.00;99.90
22842;DHT22;11587;47.064;15.444;2022-09-01T13:06:38;21.00;99.90
22842;DHT22;11587;47.064;15.444;2022-09-01T13:09:04;20.80;99.90
22842;DHT22;11587;47.064;15.444;2022-09-01T13:11:30;20.70;99.90
22842;DHT22;11587;47.064;15.444;2022-09-01T13:13:56;20.60;99.90
22842;DHT22;11587;47.064;15.444;2022-09-01T13:16:22;20.60;99.90
22842;DHT22;11587;47.064;15.444;2022-09-01T13:18:47;20.60;99.90
22842;DHT22;11587;47.064;15.444;2022-09-01T13:21:14;20.70;99.90
22842;DHT22;11587;47.064;15.444;2022-09-01T13:23:40;20.70;99.90
22842;DHT22;11587;47.064;15.444;2022-09-01T13:26:06;20.90;99.90
22842;DHT22;11587;47.064;15.444;2022-09-01T13:28:32;20.90;99.90
22842;DHT22;11587;47.064;15.444;2022-09-01T13:31:03;20.80;99.90
22842;DHT22;11587;47.064;15.444;2022-09-01T13:33:34;21.00;99.90
22842;DHT22;11587;47.064;15.444;2022-09-01T13:36:01;20.90;99.90
22842;DHT22;11587;47.064;15.444;2022-09-01T13:38:26;20.80;99.90
22842;DHT22;11587;47.064;15.444;2022-09-01T13:40:52;20.90;99.90
22842;DHT22;11587;47.064;15.444;2022-09-01T13:43:22;20.90;99.90
22842;DHT22;11587;47.064;15.444;2022-09-01T13:45:51;20.80;99.90
22842;DHT22;11587;47.064;15.444;2022-09-01T13:48:17;20.80;99.90
22842;DHT22;11587;47.064;15.444;2022-09-01T13:50:46;20.70;99.90
22842;DHT22;11587;47.064;15.444;2022-09-01T13:53:14;20.60;99.90
22842;DHT22;11587;47.064;15.444;2022-09-01T13:55:41;20.60;99.90
22842;DHT22;11587;47.064;15.444;2022-09-01T13:58:08;20.60;99.90
22842;DHT22;11587;47.064;15.444;2022-09-01T14:00:38;20.60;99.90
22842;DHT22;11587;47.064;15.444;2022-09-01T14:03:10;20.50;99.90
22842;DHT22;11587;47.064;15.444;2022-09-01T14:05:40;20.60;99.90
22842;DHT22;11587;47.064;15.444;2022-09-01T14:08:07;20.70;99.90
22842;DHT22;11587;47.064;15.444;2022-09-01T14:10:38;20.70;99.90
22842;DHT22;11587;47.064;15.444;2022-09-01T14:13:04;20.70;99.90
22842;DHT22;11587;47.064;15.444;2022-09-01T14:15:30;20.70;99.90
22842;DHT22;11587;47.064;15.444;2022-09-01T14:17:56;20.70;99.90
22842;DHT22;11587;47.064;15.444;2022-09-01T14:20:25;20.80;99.90
22842;DHT22;11587;47.064;15.444;2022-09-01T14:22:52;20.80;99.90
22842;DHT22;11587;47.064;15.444;2022-09-01T14:25:19;20.80;99.90
22842;DHT22;11587;47.064;15.444;2022-09-01T14:27:45;20.90;99.90
22842;DHT22;11587;47.064;15.444;2022-09-01T14:30:19;20.80;99.90
22842;DHT22;11587;47.064;15.444;2022-09-01T14:32:45;20.90;99.90
22842;DHT22;11587;47.064;15.444;2022-09-01T14:35:13;20.80;99.90
22842;DHT22;11587;47.064;15.444;2022-09-01T14:37:40;20.80;99.90
22842;DHT22;11587;47.064;15.444;2022-09-01T14:40:08;20.90;99.90
22842;DHT22;11587;47.064;15.444;2022-09-01T14:42:34;20.80;99.90
22842;DHT22;11587;47.064;15.444;2022-09-01T14:45:03;20.70;99.90
22842;DHT22;11587;47.064;15.444;2022-09-01T14:47:29;20.80;99.90
22842;DHT22;11587;47.064;15.444;2022-09-01T14:49:56;20.70;99.90
22842;DHT22;11587;47.064;15.444;2022-09-01T14:52:22;20.70;99.90
22842;DHT22;11587;47.064;15.444;2022-09-01T14:54:48;20.70;99.90
22842;DHT22;11587;47.064;15.444;2022-09-01T14:57:14;20.60;99.90
22842;DHT22;11587;47.064;15.444;2022-09-01T14:59:41;20.60;99.90
22842;DHT22;11587;47.064;15.444;2022-09-01T15:02:08;20.60;99.90
22842;DHT22;11587;47.064;15.444;2022-09-01T15:04:34;20.60;99.90
22842;DHT22;11587;47.064;15.444;2022-09-01T15:07:00;20.70;99.90
22842;DHT22;11587;47.064;15.444;2022-09-01T15:09:30;20.60;99.90
22842;DHT22;11587;47.064;15.444;2022-09-01T15:11:56;20.60;99.90
22842;DHT22;11587;47.064;15.444;2022-09-01T15:14:22;20.50;99.90
22842;DHT22;11587;47.064;15.444;2022-09-01T15:16:48;20.50;99.90
22842;DHT22;11587;47.064;15.444;2022-09-01T15:19:14;20.50;99.90
22842;DHT22;11587;47.064;15.444;2022-09-01T15:21:42;20.50;99.90
22842;DHT22;11587;47.064;15.444;2022-09-01T15:24:09;20.40;99.90
22842;DHT22;11587;47.064;15.444;2022-09-01T15:26:35;20.50;99.90
22842;DHT22;11587;47.064;15.444;2022-09-01T15:29:03;20.60;99.90
22842;DHT22;11587;47.064;15.444;2022-09-01T15:31:30;20.60;99.90
22842;DHT22;11587;47.064;15.444;2022-09-01T15:34:00;20.60;99.90
22842;DHT22;11587;47.064;15.444;2022-09-01T15:36:27;20.60;99.90
22842;DHT22;11587;47.064;15.444;2022-09-01T15:38:54;20.60;99.90
22842;DHT22;11587;47.064;15.444;2022-09-01T15:41:24;20.70;99.90
22842;DHT22;11587;47.064;15.444;2022-09-01T15:43:50;20.50;99.90
22842;DHT22;11587;47.064;15.444;2022-09-01T15:46:16;20.70;99.90
22842;DHT22;11587;47.064;15.444;2022-09-01T15:48:43;20.50;99.90
22842;DHT22;11587;47.064;15.444;2022-09-01T15:56:13;20.40;99.90
22842;DHT22;11587;47.064;15.444;2022-09-01T15:58:39;20.50;99.90
22842;DHT22;11587;47.064;15.444;2022-09-01T16:01:05;20.50;99.90
22842;DHT22;11587;47.064;15.444;2022-09-01T16:03:31;20.40;99.90
22842;DHT22;11587;47.064;15.444;2022-09-01T16:06:00;20.30;99.90
22842;DHT22;11587;47.064;15.444;2022-09-01T16:08:26;20.30;99.90
22842;DHT22;11587;47.064;15.444;2022-09-01T16:10:53;20.30;99.90
22842;DHT22;11587;47.064;15.444;2022-09-01T16:13:20;20.20;99.90
22842;DHT22;11587;47.064;15.444;2022-09-01T16:16:04;20.10;99.90
22842;DHT22;11587;47.064;15.444;2022-09-01T16:19:00;20.10;99.90
22842;DHT22;11587;47.064;15.444;2022-09-01T16:24:22;20.00;99.90
22842;DHT22;11587;47.064;15.444;2022-09-01T16:26:48;20.00;99.90
22842;DHT22;11587;47.064;15.444;2022-09-01T16:32:10;19.90;99.90
22842;DHT22;11587;47.064;15.444;2022-09-01T16:34:36;19.80;99.90
22842;DHT22;11587;47.064;15.444;2022-09-01T16:39:55;19.80;99.90
22842;DHT22;11587;47.064;15.444;2022-09-01T17:01:26;19.60;99.90
22842;DHT22;11587;47.064;15.444;2022-09-01T17:06:38;19.40;99.90
22842;DHT22;11587;47.064;15.444;2022-09-01T17:09:33;19.30;99.90
22842;DHT22;11587;47.064;15.444;2022-09-01T17:12:22;19.30;99.90
22842;DHT22;11587;47.064;15.444;2022-09-01T17:17:22;19.30;99.90
22842;DHT22;11587;47.064;15.444;2022-09-01T17:19:50;19.30;99.90
22842;DHT22;11587;47.064;15.444;2022-09-01T17:22:19;19.30;99.90
22842;DHT22;11587;47.064;15.444;2022-09-01T17:25:03;19.30;99.90
22842;DHT22;11587;47.064;15.444;2022-09-01T17:29:59;19.30;99.90
22842;DHT22;11587;47.064;15.444;2022-09-01T17:35:13;19.30;99.90
22842;DHT22;11587;47.064;15.444;2022-09-01T17:38:42;19.30;99.90
22842;DHT22;11587;47.064;15.444;2022-09-01T17:49:07;19.10;99.90
